Time;durP1;ratioP1;P1;durP2;ratioP2;P2;SDS_P1;SDS_P2;PMS_P1;PMS_P2;Temp;Humidity;BMP_temperature;BMP_pressure;BME280_temperature;BME280_humidity;BME280_pressure;Samples;Min_cycle;Max_cycle;Signal;HPM_P1;HPM_P2
2022/04/22 00:00:04;;;;;;;;;;;11.40;93.30;;;;;;6186474;23;19944;-84
2022/04/22 00:02:59;;;;;;;;;;;11.00;93.00;;;;;;6213706;23;19912;-83
2022/04/22 00:05:43;;;;;;;;;;;11.30;93.20;;;;;;6187035;23;19904;-81
2022/04/22 00:08:29;;;;;;;;;;;11.00;93.20;;;;;;6212898;23;19900;-82
2022/04/22 00:13:59;;;;;;;;;;;11.00;93.00;;;;;;6213716;23;19931;-81
2022/04/22 00:16:31;;;;;;;;;;;7.40;92.10;;;;;;6186497;23;19896;-83
2022/04/22 00:19:17;;;;;;;;;;;11.00;92.10;;;;;;6212613;23;19908;-82
2022/04/22 00:21:47;;;;;;;;;;;9.90;91.70;;;;;;6207177;23;19896;-83
2022/04/22 00:24:57;;;;;;;;;;;11.20;92.30;;;;;;6192698;23;19912;-82
2022/04/22 00:27:33;;;;;;;;;;;11.20;91.10;;;;;;6063530;23;19966;-86
2022/04/22 00:30:19;;;;;;;;;;;11.30;90.80;;;;;;6062299;23;19948;-85
2022/04/22 00:32:47;;;;;;;;;;;11.30;91.00;;;;;;6065127;23;19905;-84
2022/04/22 00:35:23;;;;;;;;;;;11.60;88.20;;;;;;6040199;23;19940;-84
2022/04/22 00:37:51;;;;;;;;;;;11.60;90.10;;;;;;6061002;23;19917;-82
2022/04/22 00:40:36;;;;;;;;;;;11.70;90.00;;;;;;6051956;23;19942;-83
2022/04/22 00:43:42;;;;;;;;;;;11.70;89.50;;;;;;6046713;23;19914;-84
2022/04/22 00:46:17;;;;;;;;;;;11.90;90.10;;;;;;5976673;24;19923;-84
2022/04/22 00:48:46;;;;;;;;;;;9.60;89.20;;;;;;5954385;23;19911;-83
2022/04/22 00:51:21;;;;;;;;;;;11.70;90.00;;;;;;5956625;24;19899;-85
2022/04/22 00:53:49;;;;;;;;;;;12.60;89.60;;;;;;5954344;24;19895;-84
2022/04/22 00:56:40;;;;;;;;;;;12.00;88.10;;;;;;5977628;24;19915;-84
2022/04/22 00:59:05;;;;;;;;;;;11.80;90.00;;;;;;5937588;24;19954;-86
2022/04/22 01:01:40;;;;;;;;;;;11.70;90.30;;;;;;5949118;24;20433;-85
2022/04/22 01:09:55;;;;;;;;;;;12.00;91.60;;;;;;6058165;23;19937;-88
2022/04/22 01:12:31;;;;;;;;;;;;;;;;;;;;;
2022/04/22 01:15:27;;;;;;;;;;;11.50;92.20;;;;;;6058681;23;20058;-86
2022/04/22 01:18:04;;;;;;;;;;;11.50;91.80;;;;;;6188034;23;19900;-84
2022/04/22 01:20:29;;;;;;;;;;;12.10;90.90;;;;;;6186551;23;19920;-84
2022/04/22 01:23:13;;;;;;;;;;;12.30;89.50;;;;;;6212486;23;19900;-83
2022/04/22 01:26:27;;;;;;;;;;;14.40;88.60;;;;;;6209057;23;19932;-85
2022/04/22 01:29:23;;;;;;;;;;;12.50;89.60;;;;;;6207876;23;19904;-86
2022/04/22 01:31:50;;;;;;;;;;;12.10;90.20;;;;;;6211377;23;19892;-85
2022/04/22 01:34:42;;;;;;;;;;;12.50;90.50;;;;;;6125520;23;19915;-85
2022/04/22 01:37:44;;;;;;;;;;;12.50;90.90;;;;;;6196642;23;19912;-86
2022/04/22 01:40:35;;;;;;;;;;;12.20;91.70;;;;;;6168452;23;19905;-85
2022/04/22 01:43:30;;;;;;;;;;;12.60;92.00;;;;;;6182332;23;19912;-85
2022/04/22 01:46:46;;;;;;;;;;;12.00;91.70;;;;;;6204578;23;19900;-84
2022/04/22 01:49:31;;;;;;;;;;;12.90;91.60;;;;;;6114511;23;19937;-85
2022/04/22 01:51:57;;;;;;;;;;;12.00;91.60;;;;;;6080353;23;19910;-86
2022/04/22 01:54:26;;;;;;;;;;;12.00;91.30;;;;;;6103482;23;19924;-87
2022/04/22 01:56:57;;;;;;;;;;;11.90;91.50;;;;;;6054190;23;19917;-86
2022/04/22 01:59:24;;;;;;;;;;;12.10;91.90;;;;;;6046443;23;20548;-88
2022/04/22 02:01:58;;;;;;;;;;;11.80;91.90;;;;;;6051304;23;19906;-87
2022/04/22 02:04:24;;;;;;;;;;;12.40;92.40;;;;;;6033711;23;20195;-86
2022/04/22 02:06:50;;;;;;;;;;;11.60;93.00;;;;;;6059269;23;19910;-86
2022/04/22 02:12:28;;;;;;;;;;;11.50;94.80;;;;;;6036957;23;19914;-84
2022/04/22 02:15:00;;;;;;;;;;;11.50;95.20;;;;;;5990328;23;19943;-84
2022/04/22 02:17:27;;;;;;;;;;;11.40;95.50;;;;;;6035956;23;19950;-84
2022/04/22 02:20:18;;;;;;;;;;;11.30;95.60;;;;;;6062734;23;19898;-85
2022/04/22 02:22:52;;;;;;;;;;;11.20;95.70;;;;;;6093820;23;19945;-84
2022/04/22 02:25:20;;;;;;;;;;;8.60;95.70;;;;;;6094984;23;19894;-84
2022/04/22 02:30:36;;;;;;;;;;;11.10;96.70;;;;;;6152984;23;19919;-82
2022/04/22 02:33:14;;;;;;;;;;;12.20;97.00;;;;;;6152151;23;19897;-83
2022/04/22 02:35:46;;;;;;;;;;;9.80;96.60;;;;;;6151691;23;19893;-82
2022/04/22 02:38:13;;;;;;;;;;;8.10;96.30;;;;;;6151241;23;19953;-81
2022/04/22 02:49:35;;;;;;;;;;;10.80;98.00;;;;;;6206377;23;19942;-81
2022/04/22 02:52:01;;;;;;;;;;;8.10;97.60;;;;;;6187203;23;19900;-81
2022/04/22 02:54:49;;;;;;;;;;;10.80;98.50;;;;;;6187390;23;19920;-84
2022/04/22 02:57:19;;;;;;;;;;;10.70;98.20;;;;;;6188041;23;19896;-84
2022/04/22 02:59:45;;;;;;;;;;;11.30;98.80;;;;;;6187135;23;19946;-83
2022/04/22 03:02:18;;;;;;;;;;;10.80;99.20;;;;;;6187697;23;19900;-82
2022/04/22 03:04:43;;;;;;;;;;;10.70;99.30;;;;;;6187696;23;19900;-83
2022/04/22 03:07:16;;;;;;;;;;;10.80;99.20;;;;;;6187390;23;19899;-82
2022/04/22 03:09:49;;;;;;;;;;;10.70;99.30;;;;;;6186256;23;19893;-82
2022/04/22 03:12:17;;;;;;;;;;;10.70;98.90;;;;;;6198837;23;19904;-84
2022/04/22 03:14:50;;;;;;;;;;;10.90;99.00;;;;;;6213374;23;19892;-82
2022/04/22 03:17:19;;;;;;;;;;;10.80;99.10;;;;;;6188030;23;19932;-83
2022/04/22 03:19:45;;;;;;;;;;;10.00;99.30;;;;;;6161817;23;19912;-84
2022/04/22 03:22:16;;;;;;;;;;;10.70;99.90;;;;;;6212929;23;19920;-84
2022/04/22 03:25:05;;;;;;;;;;;10.70;99.60;;;;;;6213425;23;19919;-86
2022/04/22 03:27:30;;;;;;;;;;;10.10;99.70;;;;;;6188544;23;20565;-83
2022/04/22 03:30:05;;;;;;;;;;;10.70;99.90;;;;;;6187488;23;19904;-83
2022/04/22 03:35:34;;;;;;;;;;;10.40;99.70;;;;;;6211777;23;19936;-83
2022/04/22 03:38:02;;;;;;;;;;;10.90;97.50;;;;;;6187464;23;19915;-84
2022/04/22 03:40:52;;;;;;;;;;;11.10;96.10;;;;;;6187336;23;19919;-84
2022/04/22 03:43:56;;;;;;;;;;;11.40;95.70;;;;;;6182788;23;19900;-84
2022/04/22 03:46:24;;;;;;;;;;;9.60;95.30;;;;;;6128608;23;19893;-84
2022/04/22 03:48:55;;;;;;;;;;;11.20;93.80;;;;;;6105949;23;19909;-85
2022/04/22 03:51:28;;;;;;;;;;;11.40;92.40;;;;;;6154213;23;19897;-84
2022/04/22 03:54:22;;;;;;;;;;;12.20;92.60;;;;;;6081528;23;19897;-85
2022/04/22 04:16:40;;;;;;;;;;;12.10;96.30;;;;;;6192636;22;19927;-85
2022/04/22 04:29:50;;;;;;;;;;;10.80;95.90;;;;;;6187137;22;19920;-87
2022/04/22 04:32:27;;;;;;;;;;;11.00;96.40;;;;;;6212305;23;19912;-84
2022/04/22 04:35:02;;;;;;;;;;;10.50;91.30;;;;;;6178635;23;19915;-84
2022/04/22 04:37:27;;;;;;;;;;;11.70;91.00;;;;;;6173550;23;19962;-88
2022/04/22 04:40:12;;;;;;;;;;;11.60;92.10;;;;;;6193668;23;20116;-86
2022/04/22 04:43:05;;;;;;;;;;;11.70;92.80;;;;;;6196924;23;20130;-84
2022/04/22 04:45:32;;;;;;;;;;;13.90;93.10;;;;;;6177722;23;19904;-88
2022/04/22 04:48:04;;;;;;;;;;;11.20;90.80;;;;;;6179399;23;19904;-89
2022/04/22 04:50:30;;;;;;;;;;;12.60;90.70;;;;;;6190973;23;20377;-85
2022/04/22 04:53:11;;;;;;;;;;;12.00;90.40;;;;;;6177146;23;19904;-84
2022/04/22 04:55:37;;;;;;;;;;;12.20;89.10;;;;;;6204441;23;19908;-82
2022/04/22 04:58:06;;;;;;;;;;;12.30;90.30;;;;;;6185431;23;19956;-83
2022/04/22 05:00:42;;;;;;;;;;;12.40;85.80;;;;;;6188394;23;19893;-85
2022/04/22 05:03:15;;;;;;;;;;;12.70;83.70;;;;;;6208205;23;19924;-83
2022/04/22 05:05:41;;;;;;;;;;;13.00;81.50;;;;;;6154924;23;19904;-88
2022/04/22 05:08:07;;;;;;;;;;;13.90;83.40;;;;;;6171444;23;19911;-86
2022/04/22 05:10:33;;;;;;;;;;;13.30;83.30;;;;;;6120855;23;19917;-86
2022/04/22 05:13:21;;;;;;;;;;;13.30;82.60;;;;;;6179234;23;19904;-90
2022/04/22 05:15:50;;;;;;;;;;;13.40;81.90;;;;;;6150167;23;19919;-91
2022/04/22 05:18:15;;;;;;;;;;;13.40;78.90;;;;;;6172558;23;19908;-87
2022/04/22 05:20:41;;;;;;;;;;;13.50;82.40;;;;;;6145533;23;19911;-90
2022/04/22 05:23:07;;;;;;;;;;;13.50;82.40;;;;;;6163798;23;19896;-82
2022/04/22 05:25:33;;;;;;;;;;;13.70;78.20;;;;;;6186056;23;19911;-87
2022/04/22 05:27:58;;;;;;;;;;;13.70;78.80;;;;;;6172264;23;20124;-88
2022/04/22 05:33:08;;;;;;;;;;;13.90;77.50;;;;;;6172467;23;20154;-88
2022/04/22 05:35:34;;;;;;;;;;;14.00;77.60;;;;;;6146598;23;19904;-87
2022/04/22 05:38:00;;;;;;;;;;;14.00;78.10;;;;;;6172319;23;19915;-88
2022/04/22 05:40:28;;;;;;;;;;;14.00;79.10;;;;;;6171455;23;19920;-88
2022/04/22 05:42:54;;;;;;;;;;;14.00;79.00;;;;;;6171160;23;20144;-88
2022/04/22 05:45:20;;;;;;;;;;;14.00;78.70;;;;;;6145475;23;20107;-89
2022/04/22 05:47:46;;;;;;;;;;;12.40;74.10;;;;;;6145421;23;19905;-87
2022/04/22 05:50:13;;;;;;;;;;;11.80;75.10;;;;;;6172537;23;19935;-89
2022/04/22 05:52:39;;;;;;;;;;;14.20;78.00;;;;;;6172016;23;19908;-90
2022/04/22 05:55:06;;;;;;;;;;;14.30;76.90;;;;;;6171329;23;20137;-90
2022/04/22 05:57:32;;;;;;;;;;;14.30;76.70;;;;;;6145910;23;19991;-86
2022/04/22 06:00:03;;;;;;;;;;;14.30;76.90;;;;;;6171540;23;19939;-87
2022/04/22 06:02:29;;;;;;;;;;;14.00;77.50;;;;;;6140822;23;19904;-86
2022/04/22 06:04:55;;;;;;;;;;;14.40;78.90;;;;;;6170986;23;19979;-87
2022/04/22 06:07:20;;;;;;;;;;;14.30;78.60;;;;;;6145213;23;20090;-85
2022/04/22 06:12:33;;;;;;;;;;;14.10;77.60;;;;;;6194938;23;19918;-86
2022/04/22 06:15:00;;;;;;;;;;;14.50;77.20;;;;;;6168962;23;19904;-86
2022/04/22 06:17:35;;;;;;;;;;;14.70;77.30;;;;;;6188997;23;19948;-83
2022/04/22 06:20:01;;;;;;;;;;;14.70;76.90;;;;;;6137373;23;20096;-85
2022/04/22 06:22:30;;;;;;;;;;;14.90;78.70;;;;;;6181568;23;19966;-88
2022/04/22 06:24:56;;;;;;;;;;;14.90;77.90;;;;;;6149346;23;19935;-87
2022/04/22 06:27:41;;;;;;;;;;;15.00;77.30;;;;;;6147532;23;19908;-86
2022/04/22 06:30:09;;;;;;;;;;;15.00;75.60;;;;;;6145049;23;20271;-87
2022/04/22 06:32:36;;;;;;;;;;;15.20;75.30;;;;;;6173873;23;20115;-87
2022/04/22 06:35:02;;;;;;;;;;;15.20;75.90;;;;;;6172499;23;20019;-87
2022/04/22 06:37:33;;;;;;;;;;;15.20;75.60;;;;;;6146557;23;19904;-85
2022/04/22 06:48:11;;;;;;;;;;;15.00;74.60;;;;;;6188038;23;20042;-88
2022/04/22 06:50:37;;;;;;;;;;;15.10;74.80;;;;;;6189394;23;20023;-87
2022/04/22 06:53:16;;;;;;;;;;;15.10;74.60;;;;;;6161129;23;19904;-88
2022/04/22 06:55:45;;;;;;;;;;;15.10;74.20;;;;;;6176403;23;19987;-85
2022/04/22 06:58:16;;;;;;;;;;;15.20;74.10;;;;;;6146854;23;19940;-87
2022/04/22 07:00:51;;;;;;;;;;;15.30;67.60;;;;;;6144390;23;20252;-86
2022/04/22 07:03:17;;;;;;;;;;;13.40;67.50;;;;;;6143951;23;19916;-87
2022/04/22 07:05:49;;;;;;;;;;;15.50;71.60;;;;;;6171054;23;19921;-88
2022/04/22 07:08:21;;;;;;;;;;;13.70;68.80;;;;;;6170295;23;20244;-88
2022/04/22 07:10:48;;;;;;;;;;;16.00;70.80;;;;;;6169780;23;19951;-87
2022/04/22 07:13:16;;;;;;;;;;;15.70;67.50;;;;;;6171003;23;19940;-85
2022/04/22 07:15:45;;;;;;;;;;;15.80;68.20;;;;;;6144091;23;19908;-84
2022/04/22 07:18:11;;;;;;;;;;;15.90;68.70;;;;;;6170454;23;19908;-87
2022/04/22 07:20:37;;;;;;;;;;;16.00;70.00;;;;;;6144440;23;20130;-85
2022/04/22 07:23:03;;;;;;;;;;;16.10;70.80;;;;;;6172872;23;19921;-88
2022/04/22 07:25:29;;;;;;;;;;;16.10;67.70;;;;;;6146330;23;20095;-86
2022/04/22 07:28:13;;;;;;;;;;;16.20;67.70;;;;;;6170938;23;20160;-87
2022/04/22 07:30:39;;;;;;;;;;;16.40;67.50;;;;;;6171168;23;19908;-83
2022/04/22 07:33:06;;;;;;;;;;;16.50;67.00;;;;;;6171565;23;20170;-84
2022/04/22 07:35:33;;;;;;;;;;;16.60;66.20;;;;;;6171909;23;19905;-85
2022/04/22 07:37:59;;;;;;;;;;;16.80;63.40;;;;;;6145095;23;19908;-84
2022/04/22 07:40:24;;;;;;;;;;;16.90;62.10;;;;;;6170500;23;20264;-87
2022/04/22 07:48:20;;;;;;;;;;;16.90;63.60;;;;;;6172263;23;20006;-83
2022/04/22 07:50:47;;;;;;;;;;;17.00;63.40;;;;;;6172310;23;20182;-89
2022/04/22 07:53:17;;;;;;;;;;;17.30;62.90;;;;;;6144982;23;19964;-85
2022/04/22 07:55:42;;;;;;;;;;;17.50;61.30;;;;;;6171776;23;20105;-83
2022/04/22 07:58:10;;;;;;;;;;;17.80;62.30;;;;;;6144765;23;20178;-82
2022/04/22 08:00:40;;;;;;;;;;;18.00;61.30;;;;;;6171799;23;19916;-86
2022/04/22 08:03:07;;;;;;;;;;;18.30;60.60;;;;;;6147115;23;19920;-82
2022/04/22 08:05:33;;;;;;;;;;;18.60;59.70;;;;;;6146977;23;20039;-86
2022/04/22 08:07:58;;;;;;;;;;;18.70;59.30;;;;;;6144568;23;19947;-86
2022/04/22 08:10:24;;;;;;;;;;;18.50;58.70;;;;;;6171411;23;19904;-87
2022/04/22 08:12:50;;;;;;;;;;;18.50;59.30;;;;;;6171915;23;20313;-90
2022/04/22 08:15:16;;;;;;;;;;;18.30;60.40;;;;;;6146418;23;20221;-89
2022/04/22 08:17:42;;;;;;;;;;;18.30;60.90;;;;;;6173190;23;19905;-86
2022/04/22 08:20:08;;;;;;;;;;;18.10;61.50;;;;;;6147340;23;20145;-86
2022/04/22 08:22:33;;;;;;;;;;;18.50;63.20;;;;;;6172574;23;20256;-89
2022/04/22 08:25:03;;;;;;;;;;;18.00;61.20;;;;;;6173113;23;20011;-88
2022/04/22 08:27:29;;;;;;;;;;;17.20;61.80;;;;;;6172579;23;19951;-89
2022/04/22 08:29:54;;;;;;;;;;;17.80;63.70;;;;;;6147025;23;19905;-89
2022/04/22 08:32:20;;;;;;;;;;;17.60;66.10;;;;;;6172705;23;20364;-89
2022/04/22 08:34:46;;;;;;;;;;;17.30;67.70;;;;;;6173040;23;20267;-87
2022/04/22 08:37:12;;;;;;;;;;;17.10;67.20;;;;;;6171885;23;20308;-87
2022/04/22 08:39:38;;;;;;;;;;;17.00;67.30;;;;;;6172025;23;19904;-86
2022/04/22 08:42:04;;;;;;;;;;;17.00;68.20;;;;;;6172478;23;20338;-89
2022/04/22 08:44:30;;;;;;;;;;;16.90;69.10;;;;;;6171470;23;19916;-85
2022/04/22 08:49:59;;;;;;;;;;;16.80;70.80;;;;;;6170917;23;20317;-83
2022/04/22 08:52:33;;;;;;;;;;;16.70;69.70;;;;;;6144753;23;20158;-89
2022/04/22 08:55:02;;;;;;;;;;;16.80;72.40;;;;;;6170877;23;19912;-86
2022/04/22 08:57:47;;;;;;;;;;;16.80;71.70;;;;;;6172193;23;19966;-89
2022/04/22 09:00:22;;;;;;;;;;;16.00;72.20;;;;;;6172713;23;19915;-88
2022/04/22 09:02:58;;;;;;;;;;;16.80;72.40;;;;;;6145584;23;19912;-88
2022/04/22 09:05:43;;;;;;;;;;;16.90;71.80;;;;;;6145145;23;19962;-90
2022/04/22 09:08:09;;;;;;;;;;;17.20;70.50;;;;;;6144366;23;19905;-84
2022/04/22 09:10:38;;;;;;;;;;;17.30;71.50;;;;;;6172924;23;19935;-86
2022/04/22 09:13:09;;;;;;;;;;;17.30;70.10;;;;;;6146243;23;20363;-90
2022/04/22 09:15:35;;;;;;;;;;;17.10;71.70;;;;;;6146355;23;20288;-88
2022/04/22 09:18:09;;;;;;;;;;;17.70;70.10;;;;;;6173127;23;19904;-89
2022/04/22 09:20:35;;;;;;;;;;;20.70;70.30;;;;;;6174741;23;19924;-89
2022/04/22 09:23:29;;;;;;;;;;;18.00;68.00;;;;;;6145327;23;20244;-89
2022/04/22 09:26:03;;;;;;;;;;;18.10;68.30;;;;;;6145199;23;19905;-88
2022/04/22 09:28:32;;;;;;;;;;;18.40;70.00;;;;;;6172498;23;20221;-91
2022/04/22 09:31:10;;;;;;;;;;;18.40;72.20;;;;;;6147336;23;19962;-90
2022/04/22 09:34:02;;;;;;;;;;;20.80;72.90;;;;;;6147183;23;19904;-90
2022/04/22 09:44:56;;;;;;;;;;;19.60;68.80;;;;;;6172670;23;19923;-89
2022/04/22 09:47:29;;;;;;;;;;;19.60;67.20;;;;;;6145881;23;19936;-86
2022/04/22 09:49:56;;;;;;;;;;;19.60;67.20;;;;;;6146795;23;20332;-88
2022/04/22 09:52:29;;;;;;;;;;;19.60;67.80;;;;;;6145984;23;19912;-91
2022/04/22 09:55:02;;;;;;;;;;;19.70;67.20;;;;;;6173655;23;19959;-89
2022/04/22 09:57:56;;;;;;;;;;;17.40;66.30;;;;;;6175169;23;19904;-89
2022/04/22 10:00:29;;;;;;;;;;;19.80;67.90;;;;;;6177760;23;19943;-88
2022/04/22 10:02:54;;;;;;;;;;;20.70;67.70;;;;;;6176800;23;19916;-82
2022/04/22 10:05:24;;;;;;;;;;;20.10;67.10;;;;;;6178044;23;20358;-85
2022/04/22 10:08:02;;;;;;;;;;;19.90;66.10;;;;;;6180932;23;19904;-90
2022/04/22 10:10:27;;;;;;;;;;;21.50;66.70;;;;;;6147429;23;20178;-85
2022/04/22 10:12:55;;;;;;;;;;;19.60;68.40;;;;;;6146243;23;19915;-84
2022/04/22 10:15:21;;;;;;;;;;;19.50;67.80;;;;;;6173495;23;19911;-86
2022/04/22 10:17:48;;;;;;;;;;;19.60;67.90;;;;;;6146797;23;20207;-87
2022/04/22 10:20:14;;;;;;;;;;;19.60;67.20;;;;;;6174077;23;19991;-86
2022/04/22 10:22:40;;;;;;;;;;;19.50;67.90;;;;;;6166482;23;19912;-91
2022/04/22 10:25:12;;;;;;;;;;;19.50;68.90;;;;;;6176136;23;19908;-90
2022/04/22 10:27:38;;;;;;;;;;;19.40;67.30;;;;;;6177077;23;19936;-88
2022/04/22 10:30:06;;;;;;;;;;;19.40;68.50;;;;;;6172040;23;20167;-90
2022/04/22 10:32:33;;;;;;;;;;;19.70;68.50;;;;;;6171395;23;19908;-89
2022/04/22 10:37:57;;;;;;;;;;;20.30;68.50;;;;;;6173204;23;19927;-88
2022/04/22 10:40:24;;;;;;;;;;;20.40;67.00;;;;;;6172341;23;19920;-88
2022/04/22 10:42:51;;;;;;;;;;;20.00;67.10;;;;;;6165698;23;20036;-86
2022/04/22 10:48:25;;;;;;;;;;;19.60;69.80;;;;;;6183359;23;19979;-87
2022/04/22 10:51:01;;;;;;;;;;;19.40;70.80;;;;;;6178764;23;19912;-85
2022/04/22 10:53:33;;;;;;;;;;;19.40;70.80;;;;;;6176871;23;19908;-87
2022/04/22 10:56:18;;;;;;;;;;;18.80;71.10;;;;;;6175104;23;19908;-90
2022/04/22 10:58:43;;;;;;;;;;;18.70;72.40;;;;;;6176505;23;19914;-86
2022/04/22 11:01:31;;;;;;;;;;;18.70;72.30;;;;;;6175653;23;19979;-89
2022/04/22 11:03:57;;;;;;;;;;;18.40;73.40;;;;;;6174190;23;19916;-89
2022/04/22 11:06:25;;;;;;;;;;;20.60;75.30;;;;;;6147225;23;19974;-89
2022/04/22 11:09:02;;;;;;;;;;;16.20;73.20;;;;;;6110445;23;19996;-90
2022/04/22 11:11:38;;;;;;;;;;;15.00;74.00;;;;;;6087105;23;20035;-87
2022/04/22 11:14:17;;;;;;;;;;;17.80;77.10;;;;;;6110452;23;20574;-88
2022/04/22 11:16:42;;;;;;;;;;;17.80;77.60;;;;;;6110785;23;19916;-86
2022/04/22 11:19:13;;;;;;;;;;;17.80;77.50;;;;;;6110321;23;20147;-89
2022/04/22 11:21:45;;;;;;;;;;;17.60;77.20;;;;;;6085475;23;20008;-89
2022/04/22 11:24:15;;;;;;;;;;;17.50;77.90;;;;;;6109577;23;19928;-89
2022/04/22 11:26:41;;;;;;;;;;;17.80;78.40;;;;;;6084884;23;20247;-90
2022/04/22 11:29:10;;;;;;;;;;;17.30;79.20;;;;;;6086722;23;19917;-86
2022/04/22 11:31:36;;;;;;;;;;;17.10;78.90;;;;;;6109964;23;19992;-88
2022/04/22 11:34:10;;;;;;;;;;;17.10;79.90;;;;;;6086018;23;20271;-88
2022/04/22 11:36:48;;;;;;;;;;;15.10;79.10;;;;;;6112579;23;19935;-85
2022/04/22 11:39:15;;;;;;;;;;;17.10;80.90;;;;;;6123849;23;19911;-88
2022/04/22 11:42:00;;;;;;;;;;;16.80;83.90;;;;;;6122687;23;19987;-87
2022/04/22 11:44:31;;;;;;;;;;;16.50;88.50;;;;;;6115896;23;19917;-87
2022/04/22 11:47:00;;;;;;;;;;;18.10;91.40;;;;;;6140508;23;20182;-83
2022/04/22 11:49:29;;;;;;;;;;;15.90;92.00;;;;;;6114428;23;19943;-89
2022/04/22 11:51:55;;;;;;;;;;;15.60;93.10;;;;;;6142650;23;20179;-85
2022/04/22 11:54:22;;;;;;;;;;;15.40;94.20;;;;;;6115623;23;19963;-88
2022/04/22 12:08:05;;;;;;;;;;;14.50;97.50;;;;;;6171852;23;20295;-86
2022/04/22 12:10:34;;;;;;;;;;;14.40;98.00;;;;;;6144739;23;20332;-88
2022/04/22 12:13:15;;;;;;;;;;;14.30;98.70;;;;;;6144332;23;19912;-84
2022/04/22 12:15:46;;;;;;;;;;;14.50;98.60;;;;;;6144442;23;19967;-88
2022/04/22 12:18:27;;;;;;;;;;;14.10;98.30;;;;;;6169530;23;19926;-86
2022/04/22 12:20:59;;;;;;;;;;;14.00;99.10;;;;;;6143260;23;19990;-88
2022/04/22 12:23:39;;;;;;;;;;;14.40;99.90;;;;;;6169753;23;19913;-86
2022/04/22 12:26:06;;;;;;;;;;;13.90;99.60;;;;;;6169312;23;19983;-87
2022/04/22 12:28:31;;;;;;;;;;;13.70;98.40;;;;;;6143492;23;19901;-88
2022/04/22 12:30:57;;;;;;;;;;;13.60;99.00;;;;;;6145143;23;19944;-87
2022/04/22 12:33:24;;;;;;;;;;;13.60;98.10;;;;;;6209506;23;19904;-83
2022/04/22 12:36:10;;;;;;;;;;;13.40;98.10;;;;;;6154078;23;19912;-88
2022/04/22 12:38:37;;;;;;;;;;;13.20;98.70;;;;;;6170720;23;20007;-89
2022/04/22 12:41:02;;;;;;;;;;;13.10;99.60;;;;;;6144999;23;19908;-87
2022/04/22 12:43:29;;;;;;;;;;;13.00;99.90;;;;;;6145986;23;20512;-87
2022/04/22 12:54:17;;;;;;;;;;;12.60;99.90;;;;;;6172814;23;20496;-86
2022/04/22 12:56:54;;;;;;;;;;;12.70;99.90;;;;;;6176308;23;19939;-87
2022/04/22 12:59:43;;;;;;;;;;;12.50;98.90;;;;;;6171860;23;19896;-87
2022/04/22 13:02:32;;;;;;;;;;;12.70;98.60;;;;;;6167846;23;19921;-89
2022/04/22 13:05:18;;;;;;;;;;;;;;;;;;;;;
2022/04/22 13:13:35;;;;;;;;;;;12.60;99.10;;;;;;6153770;23;19909;-89
2022/04/22 14:24:18;;;;;;;;;;;13.10;95.40;;;;;;6082819;23;19929;-90
2022/04/22 14:27:16;;;;;;;;;;;16.40;96.00;;;;;;6057974;23;19972;-89
2022/04/22 14:29:43;;;;;;;;;;;15.80;94.90;;;;;;6057395;23;19909;-88
2022/04/22 14:32:21;;;;;;;;;;;15.40;94.80;;;;;;6057130;23;19932;-89
2022/04/22 14:34:53;;;;;;;;;;;15.80;94.50;;;;;;6058006;23;19906;-91
2022/04/22 14:37:25;;;;;;;;;;;16.30;92.40;;;;;;6125128;23;20003;-84
2022/04/22 14:45:38;;;;;;;;;;;17.10;90.40;;;;;;6166378;23;20546;-86
2022/04/22 14:48:04;;;;;;;;;;;14.10;85.20;;;;;;6119190;23;19908;-87
2022/04/22 14:50:40;;;;;;;;;;;17.40;84.90;;;;;;6144458;23;19999;-87
2022/04/22 14:53:15;;;;;;;;;;;17.80;85.00;;;;;;6169417;23;19904;-87
2022/04/22 14:55:41;;;;;;;;;;;18.90;79.30;;;;;;6118729;23;19915;-86
2022/04/22 14:58:06;;;;;;;;;;;18.30;78.30;;;;;;6168856;23;19904;-86
2022/04/22 15:00:35;;;;;;;;;;;18.50;80.00;;;;;;6169020;23;19904;-86
2022/04/22 15:03:00;;;;;;;;;;;18.60;79.60;;;;;;6142712;23;19963;-84
2022/04/22 15:05:26;;;;;;;;;;;18.50;77.70;;;;;;6142030;23;19908;-85
2022/04/22 15:07:52;;;;;;;;;;;18.60;74.50;;;;;;6168237;23;19915;-86
2022/04/22 15:10:18;;;;;;;;;;;18.70;72.70;;;;;;6168252;23;19904;-88
2022/04/22 15:12:44;;;;;;;;;;;19.30;70.00;;;;;;6168828;23;19904;-86
2022/04/22 15:15:13;;;;;;;;;;;19.80;65.40;;;;;;6142600;23;20521;-85
2022/04/22 15:25:55;;;;;;;;;;;21.70;55.90;;;;;;6183816;23;19975;-86
2022/04/22 15:28:24;;;;;;;;;;;20.60;54.40;;;;;;6146543;23;19916;-86
2022/04/22 15:31:02;;;;;;;;;;;22.00;54.20;;;;;;6145369;23;19904;-86
2022/04/22 15:33:35;;;;;;;;;;;23.10;52.90;;;;;;6175004;23;19908;-86
2022/04/22 15:36:10;;;;;;;;;;;22.60;51.50;;;;;;6176974;23;19905;-86
2022/04/22 15:38:41;;;;;;;;;;;22.80;50.90;;;;;;6174736;23;20070;-87
2022/04/22 15:43:50;;;;;;;;;;;22.70;50.70;;;;;;6170064;23;19924;-86
2022/04/22 15:46:38;;;;;;;;;;;22.60;52.20;;;;;;6171808;23;19912;-86
2022/04/22 15:49:09;;;;;;;;;;;21.50;54.30;;;;;;6170206;23;19919;-84
2022/04/22 15:51:42;;;;;;;;;;;20.50;57.50;;;;;;6170167;23;19901;-86
2022/04/22 15:54:20;;;;;;;;;;;19.60;63.00;;;;;;6170306;23;19908;-85
2022/04/22 15:56:49;;;;;;;;;;;19.90;65.00;;;;;;6170145;23;19911;-87
2022/04/22 15:59:18;;;;;;;;;;;18.30;63.60;;;;;;6143717;23;19904;-89
2022/04/22 16:01:53;;;;;;;;;;;16.90;65.90;;;;;;6143513;23;19911;-85
2022/04/22 16:04:25;;;;;;;;;;;18.90;69.40;;;;;;6170395;23;19963;-86
2022/04/22 16:06:51;;;;;;;;;;;16.40;68.80;;;;;;6170288;23;19914;-83
2022/04/22 16:09:16;;;;;;;;;;;16.10;72.80;;;;;;6143616;23;20568;-83
2022/04/22 16:17:10;;;;;;;;;;;15.70;77.70;;;;;;6170996;23;20816;-87
2022/04/22 16:19:36;;;;;;;;;;;15.20;81.90;;;;;;6169945;23;19912;-85
2022/04/22 16:22:03;;;;;;;;;;;15.10;83.10;;;;;;6170207;23;19939;-87
2022/04/22 16:24:34;;;;;;;;;;;15.00;84.10;;;;;;6170462;23;19912;-85
2022/04/22 16:27:00;;;;;;;;;;;14.90;86.20;;;;;;6171345;23;19905;-86
2022/04/22 16:29:35;;;;;;;;;;;14.80;86.60;;;;;;6170953;23;19958;-88
2022/04/22 16:32:01;;;;;;;;;;;14.70;87.10;;;;;;6153239;23;20300;-86
2022/04/22 16:34:26;;;;;;;;;;;14.50;88.70;;;;;;6188655;23;20107;-83
2022/04/22 16:36:52;;;;;;;;;;;14.50;89.80;;;;;;6190976;23;19916;-87
2022/04/22 16:39:17;;;;;;;;;;;14.40;90.30;;;;;;6189222;23;20031;-86
2022/04/22 16:41:44;;;;;;;;;;;14.40;91.10;;;;;;6188411;23;19988;-87
2022/04/22 16:44:09;;;;;;;;;;;14.20;90.80;;;;;;6193363;23;19913;-85
2022/04/22 16:46:35;;;;;;;;;;;14.20;90.40;;;;;;6194807;23;20400;-87
2022/04/22 16:49:03;;;;;;;;;;;14.10;90.40;;;;;;6194393;23;19909;-87
2022/04/22 16:51:28;;;;;;;;;;;14.00;90.30;;;;;;6172032;23;19901;-88
2022/04/22 16:53:57;;;;;;;;;;;14.00;90.50;;;;;;6198212;23;19908;-87
2022/04/22 16:56:24;;;;;;;;;;;13.90;90.80;;;;;;6150405;23;20023;-84
2022/04/22 16:58:55;;;;;;;;;;;13.90;90.90;;;;;;6175331;23;19977;-88
2022/04/22 17:01:34;;;;;;;;;;;14.50;90.20;;;;;;6173271;23;20014;-86
2022/04/22 17:06:56;;;;;;;;;;;14.20;90.40;;;;;;6166960;23;19987;-86
2022/04/22 17:09:32;;;;;;;;;;;13.90;90.00;;;;;;6173738;23;19943;-87
2022/04/22 17:12:14;;;;;;;;;;;13.70;88.20;;;;;;6175256;23;19904;-88
2022/04/22 17:23:20;;;;;;;;;;;14.40;88.40;;;;;;6173133;23;19927;-87
2022/04/22 17:25:45;;;;;;;;;;;12.50;89.30;;;;;;6153665;23;19967;-85
2022/04/22 17:28:11;;;;;;;;;;;13.70;90.40;;;;;;6178811;23;19924;-83
2022/04/22 17:30:42;;;;;;;;;;;13.60;91.20;;;;;;6153785;23;20389;-89
2022/04/22 17:33:11;;;;;;;;;;;14.80;92.20;;;;;;6181113;23;19904;-88
2022/04/22 17:35:40;;;;;;;;;;;13.60;91.20;;;;;;6182623;23;19905;-87
2022/04/22 17:38:27;;;;;;;;;;;13.50;91.90;;;;;;6155501;23;19912;-86
2022/04/22 17:41:01;;;;;;;;;;;13.50;92.30;;;;;;6153802;23;19950;-87
2022/04/22 17:43:26;;;;;;;;;;;13.60;92.10;;;;;;6182764;23;19982;-86
2022/04/22 17:46:13;;;;;;;;;;;13.20;91.90;;;;;;6155664;23;20295;-88
2022/04/22 17:48:44;;;;;;;;;;;13.30;92.10;;;;;;6173296;23;19912;-87
2022/04/22 17:51:22;;;;;;;;;;;13.40;90.50;;;;;;6173009;23;19966;-88
2022/04/22 17:53:47;;;;;;;;;;;11.90;87.50;;;;;;6172746;23;20556;-83
2022/04/22 17:56:27;;;;;;;;;;;13.30;90.20;;;;;;6172755;23;19912;-83
2022/04/22 17:58:52;;;;;;;;;;;13.30;90.50;;;;;;6179768;23;20382;-89
2022/04/22 18:01:18;;;;;;;;;;;13.20;90.30;;;;;;6175241;23;19904;-91
2022/04/22 18:03:44;;;;;;;;;;;13.20;90.60;;;;;;6172437;23;20491;-90
2022/04/22 18:06:09;;;;;;;;;;;13.20;90.50;;;;;;6172059;23;19908;-87
2022/04/22 18:08:36;;;;;;;;;;;13.20;91.00;;;;;;6146089;23;20105;-86
2022/04/22 18:11:02;;;;;;;;;;;13.20;91.50;;;;;;6171403;23;19905;-88
2022/04/22 18:13:28;;;;;;;;;;;13.10;91.60;;;;;;6171605;23;20591;-88
2022/04/22 18:16:12;;;;;;;;;;;13.10;91.70;;;;;;6145287;23;19988;-87
2022/04/22 18:18:38;;;;;;;;;;;13.10;92.20;;;;;;6171309;23;19959;-84
2022/04/22 18:21:04;;;;;;;;;;;13.40;91.90;;;;;;6145921;23;19940;-86
2022/04/22 18:23:29;;;;;;;;;;;13.10;91.50;;;;;;6144944;23;20466;-84
2022/04/22 18:25:56;;;;;;;;;;;13.10;93.10;;;;;;6171790;23;19966;-83